Time;durP1;ratioP1;P1;durP2;ratioP2;P2;SDS_P1;SDS_P2;PMS_P1;PMS_P2;Temp;Humidity;BMP_temperature;BMP_pressure;BME280_temperature;BME280_humidity;BME280_pressure;Samples;Min_cycle;Max_cycle;Signal;HPM_P1;HPM_P2
2023/01/12 00:01:32;;;;;;;98.45;91.20;;;9.00;99.90;;;;;;5096673;28;20032;-78
2023/01/12 00:03:57;;;;;;;99.60;92.55;;;8.90;99.90;;;;;;5095421;28;20069;-78
2023/01/12 00:06:24;;;;;;;96.40;89.93;;;8.90;99.90;;;;;;5095308;28;20036;-79
2023/01/12 00:08:51;;;;;;;91.85;84.50;;;8.90;99.90;;;;;;5096382;28;20492;-78
2023/01/12 00:11:17;;;;;;;74.90;69.45;;;8.80;99.90;;;;;;5096618;28;20051;-78
2023/01/12 00:13:44;;;;;;;72.20;67.47;;;8.80;99.90;;;;;;5096394;28;20043;-78
2023/01/12 00:16:33;;;;;;;62.10;57.13;;;8.80;99.90;;;;;;5096317;28;20329;-78
2023/01/12 00:19:14;;;;;;;66.53;61.28;;;8.70;99.90;;;;;;5096315;28;20032;-78
2023/01/12 00:24:37;;;;;;;82.20;76.40;;;8.90;99.90;;;;;;5096295;28;20048;-78
2023/01/12 00:27:06;;;;;;;79.28;73.68;;;8.90;99.90;;;;;;5096565;28;20032;-78
2023/01/12 00:29:32;;;;;;;88.90;82.13;;;8.90;99.90;;;;;;5096403;28;20115;-78
2023/01/12 00:31:59;;;;;;;92.97;85.63;;;8.90;99.90;;;;;;5096448;28;20119;-77
2023/01/12 00:34:25;;;;;;;98.97;90.90;;;8.90;99.90;;;;;;5096058;28;20094;-78
2023/01/12 00:36:51;;;;;;;101.60;94.40;;;8.90;99.90;;;;;;5096338;28;20417;-78
2023/01/12 00:39:17;;;;;;;100.85;92.82;;;8.90;99.90;;;;;;5094979;28;20052;-78
2023/01/12 00:47:13;;;;;;;95.72;87.72;;;8.90;99.90;;;;;;5099786;28;20440;-78
2023/01/12 00:49:40;;;;;;;95.22;88.00;;;8.80;99.90;;;;;;5099971;28;20115;-78
2023/01/12 00:52:07;;;;;;;90.22;83.95;;;8.90;99.90;;;;;;5099545;28;20091;-78
2023/01/12 00:54:33;;;;;;;86.43;79.50;;;8.90;99.90;;;;;;5098594;28;20048;-79
2023/01/12 00:57:00;;;;;;;89.78;83.22;;;8.80;99.90;;;;;;5099853;28;20111;-79
2023/01/12 00:59:26;;;;;;;85.90;79.20;;;8.90;99.90;;;;;;5099523;28;20536;-78
2023/01/12 01:01:52;;;;;;;83.03;75.90;;;8.90;99.90;;;;;;5099693;28;20043;-78
2023/01/12 01:04:17;;;;;;;79.95;73.75;;;8.90;99.90;;;;;;5097992;28;20050;-79
2023/01/12 01:06:43;;;;;;;81.32;74.88;;;8.90;99.90;;;;;;5099950;28;20078;-79
2023/01/12 01:09:09;;;;;;;74.40;68.57;;;8.90;99.90;;;;;;5099331;28;20047;-78
2023/01/12 01:11:34;;;;;;;68.20;61.65;;;8.90;99.90;;;;;;5099591;28;20129;-79
2023/01/12 01:14:01;;;;;;;62.38;57.25;;;8.90;99.90;;;;;;5099264;28;20043;-78
2023/01/12 01:16:28;;;;;;;82.80;75.70;;;8.90;99.90;;;;;;5099172;28;20048;-78
2023/01/12 01:18:54;;;;;;;95.28;88.72;;;8.90;99.90;;;;;;5099448;28;20083;-78
2023/01/12 01:21:20;;;;;;;106.82;99.55;;;8.80;99.90;;;;;;5098980;28;20113;-78
2023/01/12 01:23:46;;;;;;;111.88;103.68;;;8.70;99.90;;;;;;5098195;28;20035;-78
2023/01/12 01:26:15;;;;;;;122.70;114.38;;;8.60;99.90;;;;;;5098131;28;20047;-77
2023/01/12 01:28:41;;;;;;;127.15;118.60;;;8.50;99.90;;;;;;5098819;28;20490;-78
2023/01/12 01:31:11;;;;;;;133.65;123.97;;;8.50;99.90;;;;;;5099073;28;20081;-77
2023/01/12 01:33:37;;;;;;;135.43;125.72;;;8.60;99.90;;;;;;5099022;28;20066;-77
2023/01/12 01:36:03;;;;;;;132.73;123.97;;;8.60;99.90;;;;;;5098614;28;20043;-78
2023/01/12 01:38:29;;;;;;;135.77;127.00;;;8.60;99.90;;;;;;5098941;28;20044;-78
2023/01/12 01:40:55;;;;;;;140.45;129.93;;;8.80;99.90;;;;;;5097818;28;20114;-78
2023/01/12 01:43:23;;;;;;;138.95;129.02;;;8.90;99.90;;;;;;5097480;28;20036;-78
2023/01/12 01:46:13;;;;;;;143.90;133.77;;;9.00;99.90;;;;;;5098751;28;20048;-78
2023/01/12 01:48:40;;;;;;;144.25;133.55;;;9.00;99.90;;;;;;5098507;28;20070;-78
2023/01/12 01:51:10;;;;;;;154.52;143.20;;;9.00;99.90;;;;;;5098705;28;20080;-78
2023/01/12 01:53:40;;;;;;;154.73;143.07;;;9.00;99.90;;;;;;5097592;28;20055;-78
2023/01/12 01:56:11;;;;;;;148.25;137.38;;;9.00;99.90;;;;;;5098573;28;20417;-78
2023/01/12 01:58:39;;;;;;;148.70;137.20;;;8.90;99.90;;;;;;5098577;28;20036;-78
2023/01/12 02:01:06;;;;;;;150.27;138.90;;;8.90;99.90;;;;;;5098115;28;20048;-78
2023/01/12 02:03:32;;;;;;;148.18;137.43;;;9.00;99.90;;;;;;5097132;28;20115;-78
2023/01/12 02:05:58;;;;;;;144.00;133.98;;;9.10;99.90;;;;;;5097991;28;20116;-79
2023/01/12 02:08:29;;;;;;;145.88;136.32;;;9.10;99.90;;;;;;5097319;28;20051;-78
2023/01/12 02:10:57;;;;;;;148.40;137.18;;;9.00;99.90;;;;;;5098301;28;20063;-78
2023/01/12 02:16:24;;;;;;;149.82;139.45;;;9.00;99.90;;;;;;5098272;28;20050;-78
2023/01/12 02:18:59;;;;;;;150.45;139.35;;;9.00;99.90;;;;;;5098135;28;20075;-78
2023/01/12 02:21:51;;;;;;;154.68;142.77;;;9.00;99.90;;;;;;5098012;28;20307;-78
2023/01/12 02:24:35;;;;;;;150.13;139.82;;;9.00;99.90;;;;;;5078400;28;20399;-78
2023/01/12 02:27:13;;;;;;;152.63;140.60;;;9.10;99.90;;;;;;5097724;28;20040;-78
2023/01/12 02:30:00;;;;;;;154.93;143.73;;;9.20;99.90;;;;;;5097931;28;20043;-78
2023/01/12 02:32:30;;;;;;;150.00;139.45;;;9.30;99.90;;;;;;5097915;28;20070;-78
2023/01/12 02:35:11;;;;;;;157.32;145.13;;;9.30;99.90;;;;;;5097559;28;20043;-78
2023/01/12 02:38:02;;;;;;;157.23;145.43;;;9.40;99.90;;;;;;5097761;28;20048;-78
2023/01/12 02:40:39;;;;;;;156.63;144.50;;;9.50;99.90;;;;;;5097751;28;20054;-78
2023/01/12 02:43:15;;;;;;;154.25;142.23;;;9.50;99.90;;;;;;5096404;28;20369;-78
2023/01/12 02:45:50;;;;;;;153.27;141.73;;;9.40;99.90;;;;;;5097528;28;20421;-78
2023/01/12 02:48:33;;;;;;;151.38;140.68;;;9.40;99.90;;;;;;5097627;28;20384;-78
2023/01/12 02:51:19;;;;;;;163.13;151.07;;;9.50;99.90;;;;;;5097574;28;20330;-78
2023/01/12 02:53:58;;;;;;;160.23;147.65;;;9.50;99.90;;;;;;5097073;28;20514;-78
2023/01/12 02:56:35;;;;;;;160.02;147.73;;;9.50;99.90;;;;;;5097538;28;20075;-78
2023/01/12 02:59:08;;;;;;;163.02;151.68;;;9.60;99.90;;;;;;5097447;28;20122;-78
2023/01/12 03:01:36;;;;;;;163.52;151.57;;;9.50;99.90;;;;;;5097320;28;20044;-78
2023/01/12 03:04:05;;;;;;;156.68;144.93;;;9.50;99.90;;;;;;5096460;28;20387;-78
2023/01/12 03:06:54;;;;;;;161.15;148.85;;;9.50;99.90;;;;;;5096608;28;20039;-78
2023/01/12 03:09:21;;;;;;;158.40;146.80;;;9.50;99.90;;;;;;5077689;28;20054;-79
2023/01/12 03:11:49;;;;;;;160.10;149.02;;;9.50;99.90;;;;;;5096909;28;20495;-79
2023/01/12 03:14:16;;;;;;;161.13;149.68;;;9.40;99.90;;;;;;5097197;28;20048;-78
2023/01/12 03:16:42;;;;;;;159.32;147.75;;;9.50;99.90;;;;;;5095606;28;20035;-79
2023/01/12 03:19:18;;;;;;;155.77;144.98;;;9.60;99.90;;;;;;5097100;28;20115;-78
2023/01/12 03:21:57;;;;;;;174.45;163.32;;;9.70;99.90;;;;;;5097156;28;20371;-78
2023/01/12 03:24:54;;;;;;;163.48;150.77;;;9.70;99.90;;;;;;5097054;28;20079;-78
2023/01/12 03:27:28;;;;;;;166.20;154.30;;;9.70;99.90;;;;;;5095894;28;20051;-78
2023/01/12 03:30:06;;;;;;;163.23;150.13;;;9.70;99.90;;;;;;5097001;28;20028;-78
2023/01/12 03:32:32;;;;;;;162.48;150.75;;;9.80;99.90;;;;;;5096950;28;20040;-78
2023/01/12 03:34:58;;;;;;;162.80;151.23;;;9.80;99.90;;;;;;5094913;28;20433;-78
2023/01/12 03:37:33;;;;;;;163.70;152.75;;;9.90;99.90;;;;;;5096735;28;20066;-78
2023/01/12 03:40:32;;;;;;;165.20;153.65;;;9.70;99.90;;;;;;5096824;28;20039;-78
2023/01/12 03:43:23;;;;;;;160.90;150.40;;;9.80;99.90;;;;;;5088368;28;20459;-78
2023/01/12 03:46:03;;;;;;;161.45;149.68;;;9.70;99.90;;;;;;5096532;28;20043;-78
2023/01/12 03:48:29;;;;;;;160.20;148.70;;;9.70;99.90;;;;;;5096315;28;20040;-78
2023/01/12 03:51:05;;;;;;;160.32;149.68;;;9.80;99.90;;;;;;5096730;28;20047;-78
2023/01/12 03:53:32;;;;;;;158.48;147.50;;;9.70;99.90;;;;;;5095590;28;20144;-77
2023/01/12 03:56:03;;;;;;;159.02;147.40;;;9.70;99.90;;;;;;5096646;28;20365;-78
2023/01/12 03:58:31;;;;;;;159.40;148.32;;;9.70;99.90;;;;;;5096718;28;20050;-77
2023/01/12 04:00:57;;;;;;;159.80;148.60;;;9.70;99.90;;;;;;5096342;28;20329;-78
2023/01/12 04:03:23;;;;;;;159.20;147.52;;;9.70;99.90;;;;;;5096541;28;20049;-78
2023/01/12 04:05:49;;;;;;;159.27;147.93;;;9.60;99.90;;;;;;5096178;28;20093;-78
2023/01/12 04:08:15;;;;;;;148.80;137.57;;;9.70;99.90;;;;;;5096546;28;20044;-78
2023/01/12 04:10:41;;;;;;;148.27;137.73;;;9.70;99.90;;;;;;5096283;28;20119;-78
2023/01/12 04:13:07;;;;;;;153.20;143.52;;;9.70;99.90;;;;;;5096230;28;20486;-78
2023/01/12 04:15:36;;;;;;;152.48;141.75;;;9.70;99.90;;;;;;5097827;28;20053;-78
2023/01/12 04:18:03;;;;;;;144.95;134.73;;;9.70;99.90;;;;;;5100448;28;20040;-78
2023/01/12 04:20:29;;;;;;;142.52;132.57;;;9.70;99.90;;;;;;5100132;28;20040;-78
2023/01/12 04:22:54;;;;;;;149.43;140.10;;;9.60;99.90;;;;;;5100044;28;20047;-78
2023/01/12 04:25:22;;;;;;;149.95;139.45;;;9.60;99.90;;;;;;5100049;28;20115;-78
2023/01/12 04:27:50;;;;;;;152.23;142.18;;;9.70;99.90;;;;;;5100043;28;20109;-78
2023/01/12 04:30:19;;;;;;;147.63;137.90;;;9.80;99.90;;;;;;5100233;28;20044;-78
2023/01/12 04:32:45;;;;;;;149.85;139.40;;;9.80;99.90;;;;;;5100228;28;20047;-78
2023/01/12 04:35:12;;;;;;;155.32;145.65;;;9.70;99.90;;;;;;5099498;28;20036;-78
2023/01/12 04:37:38;;;;;;;146.18;136.05;;;9.70;99.90;;;;;;5100135;28;20075;-78
2023/01/12 04:40:05;;;;;;;146.30;137.15;;;9.80;99.90;;;;;;5100053;28;20111;-78
2023/01/12 04:45:15;;;;;;;143.02;134.00;;;9.60;99.90;;;;;;5100042;28;20079;-77
2023/01/12 04:47:40;;;;;;;137.40;128.65;;;9.50;99.90;;;;;;5099965;28;20036;-78
2023/01/12 04:50:07;;;;;;;141.68;132.35;;;9.50;99.90;;;;;;5099879;28;20090;-77
2023/01/12 04:52:33;;;;;;;136.48;128.30;;;9.50;99.90;;;;;;5099545;28;20044;-78
2023/01/12 04:54:59;;;;;;;137.60;129.40;;;9.50;99.90;;;;;;5099811;28;20039;-77
2023/01/12 04:57:25;;;;;;;138.52;130.00;;;9.50;99.90;;;;;;5099544;28;20464;-78
2023/01/12 04:59:50;;;;;;;139.13;130.93;;;9.50;99.90;;;;;;5099747;28;20096;-77
2023/01/12 05:02:16;;;;;;;140.43;132.45;;;9.60;99.90;;;;;;5099606;28;20052;-78
2023/01/12 05:04:42;;;;;;;138.63;130.52;;;9.50;99.90;;;;;;5099272;28;20071;-78
2023/01/12 05:07:07;;;;;;;141.27;133.20;;;9.50;99.90;;;;;;5098501;28;20040;-78
2023/01/12 05:12:18;;;;;;;136.73;128.65;;;9.50;99.90;;;;;;5099541;28;20109;-78
2023/01/12 05:14:43;;;;;;;138.45;130.98;;;9.30;99.90;;;;;;5098132;28;20449;-78
2023/01/12 05:17:09;;;;;;;132.27;124.68;;;9.20;99.90;;;;;;5098156;28;20052;-78
2023/01/12 05:19:35;;;;;;;128.73;120.97;;;9.10;99.90;;;;;;5099368;28;20051;-78
2023/01/12 05:22:00;;;;;;;133.23;125.78;;;9.10;99.90;;;;;;5097903;28;20126;-78
2023/01/12 05:24:26;;;;;;;134.32;127.07;;;9.20;99.90;;;;;;5099217;28;20047;-78
2023/01/12 05:26:51;;;;;;;133.35;126.15;;;9.20;99.90;;;;;;5098101;28;20405;-78
2023/01/12 05:29:17;;;;;;;128.30;121.32;;;9.10;99.90;;;;;;5099160;28;20409;-77
2023/01/12 05:31:43;;;;;;;130.93;124.30;;;9.10;99.90;;;;;;5099142;28;20043;-77
2023/01/12 05:34:08;;;;;;;127.68;120.90;;;9.00;99.90;;;;;;5099080;28;20409;-77
2023/01/12 05:36:34;;;;;;;127.68;120.95;;;9.10;99.90;;;;;;5098627;28;20473;-77
2023/01/12 05:39:00;;;;;;;121.13;114.75;;;9.10;99.90;;;;;;5098963;28;20047;-77
2023/01/12 05:41:25;;;;;;;119.68;113.07;;;9.00;99.90;;;;;;5098814;28;20040;-79
2023/01/12 05:43:51;;;;;;;118.40;111.88;;;8.90;99.90;;;;;;5098857;28;20152;-77
2023/01/12 05:46:30;;;;;;;123.07;116.70;;;8.90;99.90;;;;;;5097842;28;20044;-77
2023/01/12 05:48:56;;;;;;;123.85;117.03;;;9.00;99.90;;;;;;5098835;28;20094;-78
2023/01/12 05:51:24;;;;;;;127.70;121.18;;;9.10;99.90;;;;;;5097254;28;20032;-76
2023/01/12 05:53:49;;;;;;;119.85;113.13;;;9.00;99.90;;;;;;5098405;28;20077;-77
2023/01/12 05:56:26;;;;;;;120.22;113.47;;;8.90;99.90;;;;;;5098663;28;20036;-77
2023/01/12 05:58:57;;;;;;;123.85;117.22;;;8.90;99.90;;;;;;5098546;28;20032;-78
2023/01/12 06:01:23;;;;;;;124.82;118.13;;;9.00;99.90;;;;;;5098431;28;20036;-77
2023/01/12 06:03:54;;;;;;;123.60;116.85;;;9.00;99.90;;;;;;5097165;28;20116;-77
2023/01/12 06:06:21;;;;;;;122.63;116.28;;;9.00;99.90;;;;;;5098046;28;20039;-77
2023/01/12 06:08:47;;;;;;;132.60;125.45;;;9.00;99.90;;;;;;5098339;28;20036;-77
2023/01/12 06:13:59;;;;;;;122.70;115.88;;;9.00;99.90;;;;;;5098333;28;20043;-77
2023/01/12 06:16:26;;;;;;;127.32;120.75;;;9.10;99.90;;;;;;5097014;28;20144;-77
2023/01/12 06:18:52;;;;;;;128.63;121.93;;;9.10;99.90;;;;;;5098166;28;20333;-77
2023/01/12 06:21:18;;;;;;;129.48;122.40;;;9.10;99.90;;;;;;5079843;28;20036;-77
2023/01/12 06:23:43;;;;;;;128.80;121.43;;;9.10;99.90;;;;;;5098109;28;20036;-77
2023/01/12 06:26:09;;;;;;;131.88;124.63;;;9.20;99.90;;;;;;5096730;28;20042;-77
2023/01/12 06:28:36;;;;;;;122.63;116.10;;;9.30;99.90;;;;;;5098008;28;20032;-77
2023/01/12 06:31:06;;;;;;;124.68;117.97;;;9.20;99.90;;;;;;5097628;28;20120;-77
2023/01/12 06:33:32;;;;;;;121.93;115.63;;;9.30;99.90;;;;;;5097922;28;20122;-77
2023/01/12 06:35:58;;;;;;;121.65;115.25;;;9.30;99.90;;;;;;5097399;28;20048;-77
2023/01/12 06:38:26;;;;;;;110.97;105.28;;;9.30;99.90;;;;;;5097305;28;20040;-77
2023/01/12 06:40:52;;;;;;;119.15;112.82;;;9.40;99.90;;;;;;5096440;28;20052;-78
2023/01/12 06:43:18;;;;;;;114.15;108.35;;;9.40;99.90;;;;;;5097654;28;20036;-77
2023/01/12 06:45:44;;;;;;;116.10;109.97;;;9.40;99.90;;;;;;5097699;28;20039;-78
2023/01/12 06:48:10;;;;;;;111.45;105.55;;;9.50;99.90;;;;;;5097650;28;20066;-77
2023/01/12 06:50:36;;;;;;;111.85;106.03;;;9.50;99.90;;;;;;5097645;28;20032;-77
2023/01/12 06:53:05;;;;;;;113.75;107.75;;;9.50;99.90;;;;;;5097192;28;20058;-77
2023/01/12 06:55:31;;;;;;;107.30;101.90;;;9.60;99.90;;;;;;5097204;28;20043;-77
2023/01/12 06:58:01;;;;;;;111.82;106.32;;;9.60;99.90;;;;;;5097514;28;20333;-77
2023/01/12 07:00:27;;;;;;;111.13;105.55;;;9.60;99.90;;;;;;5097427;28;20051;-77
2023/01/12 07:02:53;;;;;;;108.60;103.00;;;9.60;99.90;;;;;;5095994;28;20055;-78
2023/01/12 07:05:18;;;;;;;103.18;97.78;;;9.60;99.90;;;;;;5097020;28;20118;-78
2023/01/12 07:07:44;;;;;;;103.65;98.05;;;9.70;99.90;;;;;;5096093;28;20040;-77
2023/01/12 07:10:11;;;;;;;99.22;94.18;;;9.70;99.90;;;;;;5097401;28;20097;-78
2023/01/12 07:12:37;;;;;;;93.85;89.05;;;9.80;99.90;;;;;;5096056;28;20111;-77
2023/01/12 07:15:03;;;;;;;95.90;91.03;;;9.80;99.90;;;;;;5097323;28;20071;-78
2023/01/12 07:17:29;;;;;;;96.72;91.53;;;9.90;99.90;;;;;;5097293;28;20070;-78
2023/01/12 07:19:55;;;;;;;92.38;86.97;;;9.90;99.90;;;;;;5096983;28;20433;-78
2023/01/12 07:22:21;;;;;;;95.20;89.80;;;9.90;99.90;;;;;;5097163;28;20075;-77
2023/01/12 07:24:47;;;;;;;94.57;89.47;;;9.90;99.90;;;;;;5096878;28;20050;-78
2023/01/12 07:27:12;;;;;;;94.55;89.47;;;10.00;99.90;;;;;;5096854;28;20036;-78
2023/01/12 07:29:38;;;;;;;93.10;88.20;;;10.10;99.90;;;;;;5097076;28;20039;-79
2023/01/12 07:32:04;;;;;;;103.72;98.22;;;10.10;99.90;;;;;;5095732;28;20117;-77
2023/01/12 07:34:30;;;;;;;101.90;96.07;;;10.10;99.90;;;;;;5096991;28;20036;-77
2023/01/12 07:36:56;;;;;;;83.03;78.25;;;10.10;99.90;;;;;;5096656;28;20478;-78
2023/01/12 07:39:22;;;;;;;84.60;79.18;;;10.20;99.90;;;;;;5096727;28;20071;-78
2023/01/12 07:44:32;;;;;;;81.30;75.63;;;10.20;99.90;;;;;;5096985;28;20047;-78
2023/01/12 07:47:01;;;;;;;80.93;75.68;;;10.30;99.90;;;;;;5095596;28;20040;-78
2023/01/12 07:49:26;;;;;;;81.13;75.38;;;10.30;99.90;;;;;;5097432;28;20047;-78
2023/01/12 07:51:53;;;;;;;81.32;75.75;;;10.30;99.90;;;;;;5101852;28;20056;-78
2023/01/12 07:54:19;;;;;;;86.95;79.90;;;10.40;99.90;;;;;;5103625;28;20055;-77
2023/01/12 07:56:45;;;;;;;89.78;83.50;;;10.40;99.90;;;;;;5103307;28;20482;-77
2023/01/12 07:59:11;;;;;;;91.10;84.45;;;10.40;99.90;;;;;;5103528;28;20048;-74
2023/01/12 08:01:36;;;;;;;92.53;84.65;;;10.40;99.90;;;;;;5103495;28;20048;-72
2023/01/12 08:04:02;;;;;;;86.72;80.85;;;10.50;99.90;;;;;;5103194;28;20329;-72
2023/01/12 08:06:28;;;;;;;86.40;79.70;;;10.50;99.90;;;;;;5103174;28;20064;-73
2023/01/12 08:08:54;;;;;;;90.03;82.75;;;10.50;99.90;;;;;;5103462;28;20036;-71
2023/01/12 08:11:21;;;;;;;92.25;85.15;;;10.50;99.90;;;;;;5103431;28;20036;-71
2023/01/12 08:13:48;;;;;;;93.32;85.70;;;10.60;99.90;;;;;;5103158;28;20467;-71
2023/01/12 08:16:42;;;;;;;96.93;89.28;;;10.60;99.90;;;;;;5103430;28;20028;-72
2023/01/12 08:19:23;;;;;;;96.22;88.53;;;10.60;99.90;;;;;;5103460;28;20102;-70
2023/01/12 08:21:57;;;;;;;103.60;95.35;;;10.60;99.90;;;;;;5103203;28;20075;-71
2023/01/12 08:24:29;;;;;;;102.05;92.70;;;10.70;99.90;;;;;;5103306;28;20036;-71
2023/01/12 08:26:58;;;;;;;108.80;99.70;;;10.70;99.90;;;;;;5103086;28;20032;-71
2023/01/12 08:29:32;;;;;;;108.05;98.85;;;10.70;99.90;;;;;;5102005;28;20047;-71
2023/01/12 08:32:02;;;;;;;102.30;94.65;;;10.70;99.90;;;;;;5103012;28;20047;-71
2023/01/12 08:34:29;;;;;;;97.35;88.55;;;10.70;99.90;;;;;;5103293;28;20302;-70
2023/01/12 08:36:57;;;;;;;102.45;93.50;;;10.70;99.90;;;;;;5102773;28;20356;-69
2023/01/12 08:39:23;;;;;;;104.47;95.50;;;10.70;99.90;;;;;;5103156;28;20036;-71
2023/01/12 08:41:49;;;;;;;105.88;96.38;;;10.70;99.90;;;;;;5102994;28;20051;-72
2023/01/12 08:44:15;;;;;;;104.15;95.22;;;10.70;99.90;;;;;;5103203;28;20040;-71
2023/01/12 08:46:51;;;;;;;106.20;97.47;;;10.80;99.90;;;;;;5103153;28;20417;-72
2023/01/12 08:49:20;;;;;;;108.85;99.63;;;10.80;99.90;;;;;;5102814;28;20496;-71
2023/01/12 08:51:46;;;;;;;106.93;98.93;;;10.80;99.90;;;;;;5102571;28;20104;-71
2023/01/12 08:54:14;;;;;;;105.95;97.28;;;10.90;99.90;;;;;;5102797;28;20035;-72
2023/01/12 08:56:40;;;;;;;110.30;100.85;;;10.90;99.90;;;;;;5102924;28;20046;-72
2023/01/12 08:59:06;;;;;;;112.18;103.32;;;10.90;99.90;;;;;;5102595;28;20028;-72
2023/01/12 09:01:32;;;;;;;115.15;105.95;;;11.00;99.90;;;;;;5101717;28;20036;-72
2023/01/12 09:03:59;;;;;;;114.20;105.30;;;10.90;99.90;;;;;;5099362;28;20425;-72
2023/01/12 09:06:27;;;;;;;112.53;103.40;;;10.90;99.90;;;;;;5099068;28;20078;-71
2023/01/12 09:08:58;;;;;;;112.20;103.85;;;10.90;99.90;;;;;;5099604;28;20047;-71
2023/01/12 09:11:24;;;;;;;110.63;102.18;;;10.90;99.90;;;;;;5099661;28;20097;-72
2023/01/12 09:13:50;;;;;;;110.85;102.53;;;10.90;99.90;;;;;;5099489;28;20036;-71
2023/01/12 09:16:17;;;;;;;113.40;104.10;;;10.90;99.90;;;;;;5099195;28;20117;-72
2023/01/12 09:18:44;;;;;;;110.45;101.85;;;10.90;99.90;;;;;;5099382;28;20040;-72
2023/01/12 09:21:11;;;;;;;109.05;100.03;;;11.00;99.90;;;;;;5099343;28;20035;-72
2023/01/12 09:23:38;;;;;;;111.63;103.30;;;11.00;99.90;;;;;;5099223;28;20390;-72
2023/01/12 09:26:12;;;;;;;112.82;104.20;;;11.00;99.90;;;;;;5098966;28;20039;-72
2023/01/12 09:28:38;;;;;;;114.95;106.00;;;11.00;99.90;;;;;;5099179;28;20109;-72
2023/01/12 09:31:10;;;;;;;117.40;108.50;;;11.00;99.90;;;;;;5099167;28;20036;-72
2023/01/12 09:33:36;;;;;;;117.30;107.45;;;11.00;99.90;;;;;;5099185;28;20036;-72
2023/01/12 09:36:14;;;;;;;117.63;109.20;;;11.00;99.90;;;;;;5097816;28;20040;-72
2023/01/12 09:38:42;;;;;;;115.35;107.25;;;11.00;99.90;;;;;;5098757;28;20036;-72
2023/01/12 09:46:57;;;;;;;114.28;105.78;;;11.10;99.90;;;;;;5098919;28;20051;-72
2023/01/12 09:47:14;;;;;;;117.22;108.35;;;11.10;99.90;;;;;;5098905;28;20067;-71
2023/01/12 09:49:44;;;;;;;117.78;109.15;;;11.20;99.90;;;;;;5099038;28;20375;-71
2023/01/12 09:52:21;;;;;;;119.57;110.90;;;11.20;99.90;;;;;;5097585;28;20055;-72
2023/01/12 09:54:50;;;;;;;114.57;106.38;;;11.10;99.90;;;;;;5098690;28;20123;-71
2023/01/12 09:57:33;;;;;;;113.10;105.03;;;11.10;99.90;;;;;;5098370;28;20472;-71
2023/01/12 10:00:08;;;;;;;119.20;110.95;;;11.10;99.90;;;;;;5098624;28;20043;-72
2023/01/12 10:02:37;;;;;;;116.55;108.25;;;11.20;99.90;;;;;;5097213;28;20437;-71
2023/01/12 10:05:07;;;;;;;113.53;105.15;;;11.20;99.90;;;;;;5098188;28;20452;-72
2023/01/12 10:07:34;;;;;;;110.85;103.05;;;11.20;99.90;;;;;;5098435;28;20119;-72
2023/01/12 10:09:59;;;;;;;115.93;107.53;;;11.20;99.90;;;;;;5098365;28;20047;-72
2023/01/12 10:12:34;;;;;;;114.82;106.00;;;11.20;99.90;;;;;;5096999;28;20051;-72
2023/01/12 10:15:35;;;;;;;112.22;103.97;;;11.30;99.90;;;;;;5096898;28;20048;-72
2023/01/12 10:18:19;;;;;;;112.28;104.93;;;11.30;99.90;;;;;;5055776;28;20381;-71
2023/01/12 10:20:45;;;;;;;103.60;96.90;;;11.30;99.90;;;;;;5094728;28;20448;-74
2023/01/12 10:23:15;;;;;;;95.82;89.28;;;11.30;99.90;;;;;;5096907;28;20119;-71
2023/01/12 10:25:47;;;;;;;110.70;103.07;;;11.30;99.90;;;;;;5098135;28;20032;-73
2023/01/12 10:28:16;;;;;;;119.35;110.72;;;11.30;99.90;;;;;;5097792;28;20054;-72
2023/01/12 10:30:42;;;;;;;122.20;113.90;;;11.30;99.90;;;;;;5097981;28;20093;-73
2023/01/12 10:33:13;;;;;;;116.10;108.65;;;11.40;99.90;;;;;;5097921;28;20039;-73
2023/01/12 10:35:51;;;;;;;116.00;108.65;;;11.40;99.90;;;;;;5097561;28;20044;-73
2023/01/12 10:38:33;;;;;;;113.20;106.00;;;11.40;99.90;;;;;;5098024;28;20389;-73
2023/01/12 10:41:19;;;;;;;98.05;91.25;;;11.50;99.90;;;;;;5097991;28;20051;-73
2023/01/12 10:43:59;;;;;;;113.22;105.35;;;11.50;99.90;;;;;;5097926;28;20329;-72
2023/01/12 10:46:27;;;;;;;120.30;112.68;;;11.50;99.90;;;;;;5097460;28;20443;-72
2023/01/12 10:49:13;;;;;;;122.25;113.53;;;11.50;99.90;;;;;;5096641;28;20040;-73
2023/01/12 10:51:47;;;;;;;118.05;111.15;;;11.40;99.90;;;;;;5097415;28;20050;-71
2023/01/12 10:54:23;;;;;;;114.80;107.63;;;11.40;99.90;;;;;;5097600;28;20425;-73
2023/01/12 10:56:59;;;;;;;126.38;118.07;;;11.40;99.90;;;;;;5097736;28;20145;-73
2023/01/12 10:59:28;;;;;;;120.78;111.90;;;11.50;99.90;;;;;;5096323;28;20051;-72
2023/01/12 11:02:07;;;;;;;125.18;116.78;;;11.40;99.90;;;;;;5097331;28;20044;-72
2023/01/12 11:04:51;;;;;;;122.07;114.18;;;11.50;99.90;;;;;;5097376;28;20040;-73
2023/01/12 11:07:18;;;;;;;122.20;114.40;;;11.40;99.90;;;;;;5097367;28;20047;-72
2023/01/12 11:09:45;;;;;;;119.22;111.70;;;11.50;99.90;;;;;;5097090;28;20036;-72
2023/01/12 11:12:38;;;;;;;115.25;107.90;;;11.50;99.90;;;;;;5097254;28;20040;-73
2023/01/12 11:15:11;;;;;;;115.03;107.47;;;11.50;99.90;;;;;;5079275;28;20046;-72
2023/01/12 11:17:56;;;;;;;119.40;111.82;;;11.50;99.90;;;;;;5096890;28;20479;-72
2023/01/12 11:20:38;;;;;;;101.70;94.63;;;11.60;99.90;;;;;;5097271;28;20072;-72
2023/01/12 11:23:31;;;;;;;106.70;100.00;;;11.60;99.90;;;;;;5096108;28;20075;-73
2023/01/12 11:26:00;;;;;;;99.68;93.10;;;11.70;99.90;;;;;;5093941;28;20109;-73
2023/01/12 11:28:31;;;;;;;110.25;102.88;;;11.70;99.90;;;;;;5097007;28;20040;-83
2023/01/12 11:30:59;;;;;;;110.10;102.97;;;11.80;99.90;;;;;;5097047;28;20119;-75
2023/01/12 11:33:28;;;;;;;107.10;100.25;;;11.70;99.90;;;;;;5096985;28;20117;-74
2023/01/12 11:36:21;;;;;;;102.10;95.13;;;11.70;99.90;;;;;;5096604;28;20051;-75
2023/01/12 11:38:57;;;;;;;97.80;91.38;;;11.70;99.90;;;;;;5096985;28;20105;-73
2023/01/12 11:41:28;;;;;;;97.47;90.97;;;11.80;99.90;;;;;;5096997;28;20050;-73
2023/01/12 11:43:57;;;;;;;111.70;104.88;;;11.80;99.90;;;;;;5096909;28;20093;-73
2023/01/12 11:46:47;;;;;;;99.78;93.43;;;12.00;99.90;;;;;;5096927;28;20097;-72
2023/01/12 11:49:35;;;;;;;90.75;85.15;;;12.00;99.90;;;;;;5096607;28;20452;-73
2023/01/12 11:52:01;;;;;;;100.47;93.78;;;12.00;99.90;;;;;;5078477;28;20127;-73
2023/01/12 11:54:29;;;;;;;99.72;92.70;;;12.10;99.90;;;;;;5096859;28;20044;-72
2023/01/12 11:57:35;;;;;;;100.95;93.75;;;12.10;99.90;;;;;;5096754;28;20081;-72
2023/01/12 12:00:29;;;;;;;100.07;93.90;;;12.20;99.90;;;;;;5096782;28;20040;-72
2023/01/12 12:03:23;;;;;;;86.32;80.60;;;12.30;99.90;;;;;;5096449;28;20044;-72
2023/01/12 12:06:07;;;;;;;88.35;82.85;;;12.30;99.90;;;;;;5096034;28;20047;-77
2023/01/12 12:08:55;;;;;;;85.18;79.30;;;12.30;99.90;;;;;;5096543;28;20115;-75
2023/01/12 12:11:36;;;;;;;81.85;76.65;;;12.30;99.90;;;;;;5095333;28;20071;-73
2023/01/12 12:14:14;;;;;;;85.07;79.72;;;12.30;99.90;;;;;;5095385;28;20097;-73
2023/01/12 12:16:42;;;;;;;94.43;88.15;;;12.20;99.90;;;;;;5095752;28;20036;-74
2023/01/12 12:19:23;;;;;;;93.15;87.22;;;12.30;99.90;;;;;;5095934;28;20070;-74
2023/01/12 12:22:09;;;;;;;91.72;86.43;;;12.20;99.90;;;;;;5092870;28;20375;-74
2023/01/12 12:25:10;;;;;;;95.17;89.17;;;12.30;99.90;;;;;;5075008;28;20048;-72
2023/01/12 12:28:07;;;;;;;91.40;85.60;;;12.30;99.90;;;;;;5076442;28;20044;-72
2023/01/12 12:30:53;;;;;;;95.15;89.63;;;12.20;99.90;;;;;;5075068;28;20159;-76
2023/01/12 12:33:37;;;;;;;;;;;12.20;99.90;;;;;;5076852;28;20119;-73
2023/01/12 12:36:15;;;;;;;91.00;84.03;;;12.10;99.90;;;;;;5076357;28;19923;-72
2023/01/12 12:39:04;;;;;;;91.32;85.38;;;12.10;99.90;;;;;;5079738;28;20409;-73
2023/01/12 12:47:52;;;;;;;106.47;99.90;;;12.10;99.90;;;;;;5079784;28;20043;-71
2023/01/12 12:51:07;;;;;;;106.63;99.88;;;12.20;99.90;;;;;;5079678;28;20040;-71
2023/01/12 12:53:43;;;;;;;119.70;112.32;;;12.20;99.90;;;;;;5037484;28;20054;-71
2023/01/12 12:56:13;;;;;;;122.10;114.38;;;12.30;99.90;;;;;;5037534;28;20033;-68
2023/01/12 12:58:44;;;;;;;120.22;111.53;;;12.30;99.90;;;;;;5064348;28;20138;-71
2023/01/12 13:01:19;;;;;;;115.75;107.85;;;12.30;99.90;;;;;;5079485;28;20106;-71
2023/01/12 13:03:46;;;;;;;124.25;115.32;;;12.10;99.90;;;;;;5079354;28;20303;-71
2023/01/12 13:06:21;;;;;;;121.78;114.32;;;12.10;99.90;;;;;;5078987;28;20036;-72
2023/01/12 13:08:49;;;;;;;120.78;113.05;;;12.20;99.90;;;;;;5079150;28;20177;-71
2023/01/12 13:11:16;;;;;;;120.43;112.63;;;12.10;99.90;;;;;;5079312;28;20068;-71